sensor_id;sensor_type;location;lat;lon;timestamp;pressure;altitude;pressure_sealevel;temperature;humidity
82858;BME280;72620;47.774;9.620;2023-11-21T00:01:16;95885.72;;;8.51;75.71
82858;BME280;72620;47.774;9.620;2023-11-21T00:03:44;95890.47;;;8.46;77.00
82858;BME280;72620;47.774;9.620;2023-11-21T00:06:11;95888.22;;;8.43;76.73
82858;BME280;72620;47.774;9.620;2023-11-21T00:08:38;95908.69;;;8.43;76.94
82858;BME280;72620;47.774;9.620;2023-11-21T00:11:05;95908.69;;;8.43;76.94
82858;BME280;72620;47.774;9.620;2023-11-21T00:13:32;95904.78;;;8.39;77.53
82858;BME280;72620;47.774;9.620;2023-11-21T00:15:59;95900.94;;;8.35;79.95
82858;BME280;72620;47.774;9.620;2023-11-21T00:18:26;95895.16;;;8.33;76.71
82858;BME280;72620;47.774;9.620;2023-11-21T00:20:54;95893.97;;;8.27;78.15
82858;BME280;72620;47.774;9.620;2023-11-21T00:23:21;95887.41;;;8.25;78.90
82858;BME280;72620;47.774;9.620;2023-11-21T00:25:48;95890.94;;;8.14;79.56
82858;BME280;72620;47.774;9.620;2023-11-21T00:28:15;95890.59;;;8.09;79.87
82858;BME280;72620;47.774;9.620;2023-11-21T00:30:43;95889.25;;;8.05;78.93
82858;BME280;72620;47.774;9.620;2023-11-21T00:33:10;95890.00;;;7.97;79.16
82858;BME280;72620;47.774;9.620;2023-11-21T00:35:37;95903.56;;;7.98;80.21
82858;BME280;72620;47.774;9.620;2023-11-21T00:38:04;95894.28;;;7.97;80.58
82858;BME280;72620;47.774;9.620;2023-11-21T00:40:31;95890.44;;;7.93;81.72
82858;BME280;72620;47.774;9.620;2023-11-21T00:42:59;95889.63;;;7.92;81.21
82858;BME280;72620;47.774;9.620;2023-11-21T00:45:27;95890.28;;;7.94;82.45
82858;BME280;72620;47.774;9.620;2023-11-21T00:47:54;95892.00;;;7.94;84.16
82858;BME280;72620;47.774;9.620;2023-11-21T00:50:21;95885.44;;;7.91;83.20
82858;BME280;72620;47.774;9.620;2023-11-21T00:52:48;95877.94;;;7.90;84.81
82858;BME280;72620;47.774;9.620;2023-11-21T00:55:16;95884.69;;;7.81;84.16
82858;BME280;72620;47.774;9.620;2023-11-21T00:57:44;95884.69;;;7.81;84.16
82858;BME280;72620;47.774;9.620;2023-11-21T01:00:11;95880.28;;;7.74;84.58
82858;BME280;72620;47.774;9.620;2023-11-21T01:02:44;95880.28;;;7.74;84.58
82858;BME280;72620;47.774;9.620;2023-11-21T01:05:12;95873.06;;;7.69;84.85
82858;BME280;72620;47.774;9.620;2023-11-21T01:07:39;95876.16;;;7.73;84.01
82858;BME280;72620;47.774;9.620;2023-11-21T01:10:06;95872.13;;;7.70;83.30
82858;BME280;72620;47.774;9.620;2023-11-21T01:12:37;95875.75;;;7.68;85.47
82858;BME280;72620;47.774;9.620;2023-11-21T01:15:06;95875.75;;;7.68;85.47
82858;BME280;72620;47.774;9.620;2023-11-21T01:17:38;95868.69;;;7.62;85.52
82858;BME280;72620;47.774;9.620;2023-11-21T01:20:06;95866.13;;;7.62;85.47
82858;BME280;72620;47.774;9.620;2023-11-21T01:22:39;95863.03;;;7.58;85.91
82858;BME280;72620;47.774;9.620;2023-11-21T01:25:07;95863.03;;;7.58;85.91
82858;BME280;72620;47.774;9.620;2023-11-21T01:27:34;95858.78;;;7.49;86.08
82858;BME280;72620;47.774;9.620;2023-11-21T01:30:02;95858.78;;;7.49;86.08
82858;BME280;72620;47.774;9.620;2023-11-21T01:32:31;95860.97;;;7.44;86.25
82858;BME280;72620;47.774;9.620;2023-11-21T01:34:59;95866.88;;;7.45;85.75
82858;BME280;72620;47.774;9.620;2023-11-21T01:37:26;95866.59;;;7.48;85.65
82858;BME280;72620;47.774;9.620;2023-11-21T01:39:54;95866.59;;;7.48;85.65
82858;BME280;72620;47.774;9.620;2023-11-21T01:42:23;95866.88;;;7.45;86.25
82858;BME280;72620;47.774;9.620;2023-11-21T01:44:50;95872.50;;;7.48;86.61
82858;BME280;72620;47.774;9.620;2023-11-21T01:47:17;95882.41;;;7.51;86.68
82858;BME280;72620;47.774;9.620;2023-11-21T01:49:45;95882.41;;;7.51;86.68
82858;BME280;72620;47.774;9.620;2023-11-21T01:52:13;95883.09;;;7.53;87.16
82858;BME280;72620;47.774;9.620;2023-11-21T01:54:41;95882.31;;;7.53;85.63
82858;BME280;72620;47.774;9.620;2023-11-21T01:57:09;95888.19;;;7.53;85.47
82858;BME280;72620;47.774;9.620;2023-11-21T01:59:37;95888.19;;;7.53;85.47
82858;BME280;72620;47.774;9.620;2023-11-21T02:02:07;95867.09;;;7.51;84.58
82858;BME280;72620;47.774;9.620;2023-11-21T02:04:36;95878.66;;;7.55;85.77
82858;BME280;72620;47.774;9.620;2023-11-21T02:07:04;95870.03;;;7.56;85.92
82858;BME280;72620;47.774;9.620;2023-11-21T02:09:34;95870.03;;;7.56;85.92
82858;BME280;72620;47.774;9.620;2023-11-21T02:12:01;95867.25;;;7.50;86.20
82858;BME280;72620;47.774;9.620;2023-11-21T02:14:29;95867.75;;;7.53;86.07
82858;BME280;72620;47.774;9.620;2023-11-21T02:16:57;95867.75;;;7.53;86.07
82858;BME280;72620;47.774;9.620;2023-11-21T02:19:24;95851.41;;;7.46;86.22
82858;BME280;72620;47.774;9.620;2023-11-21T02:21:57;95863.63;;;7.52;85.73
82858;BME280;72620;47.774;9.620;2023-11-21T02:24:29;95863.63;;;7.52;85.73
82858;BME280;72620;47.774;9.620;2023-11-21T02:26:57;95845.34;;;7.47;86.60
82858;BME280;72620;47.774;9.620;2023-11-21T02:29:24;95851.28;;;7.48;86.57
82858;BME280;72620;47.774;9.620;2023-11-21T02:31:55;95863.34;;;7.55;86.62
82858;BME280;72620;47.774;9.620;2023-11-21T02:34:23;95863.34;;;7.55;86.62
82858;BME280;72620;47.774;9.620;2023-11-21T02:36:52;95869.22;;;7.56;86.92
82858;BME280;72620;47.774;9.620;2023-11-21T02:39:19;95869.22;;;7.56;86.92
82858;BME280;72620;47.774;9.620;2023-11-21T02:41:49;95863.63;;;7.52;87.08
82858;BME280;72620;47.774;9.620;2023-11-21T02:44:17;95860.25;;;7.52;88.06
82858;BME280;72620;47.774;9.620;2023-11-21T02:46:44;95860.25;;;7.52;88.06
82858;BME280;72620;47.774;9.620;2023-11-21T02:49:11;95863.22;;;7.47;88.37
82858;BME280;72620;47.774;9.620;2023-11-21T02:51:38;95871.69;;;7.48;87.81
82858;BME280;72620;47.774;9.620;2023-11-21T02:54:06;95873.03;;;7.52;86.59
82858;BME280;72620;47.774;9.620;2023-11-21T02:56:35;95873.03;;;7.52;86.59
82858;BME280;72620;47.774;9.620;2023-11-21T02:59:02;95866.09;;;7.44;85.70
82858;BME280;72620;47.774;9.620;2023-11-21T03:01:30;95866.09;;;7.44;85.70
82858;BME280;72620;47.774;9.620;2023-11-21T03:03:57;95854.41;;;7.42;84.28
82858;BME280;72620;47.774;9.620;2023-11-21T03:06:24;95856.41;;;7.38;84.76
82858;BME280;72620;47.774;9.620;2023-11-21T03:08:51;95862.59;;;7.36;84.39
82858;BME280;72620;47.774;9.620;2023-11-21T03:11:18;95875.50;;;7.34;86.92
82858;BME280;72620;47.774;9.620;2023-11-21T03:13:45;95878.75;;;7.26;84.74
82858;BME280;72620;47.774;9.620;2023-11-21T03:16:13;95864.81;;;7.21;85.18
82858;BME280;72620;47.774;9.620;2023-11-21T03:18:40;95854.88;;;7.18;86.13
82858;BME280;72620;47.774;9.620;2023-11-21T03:21:08;95856.78;;;7.16;85.65
82858;BME280;72620;47.774;9.620;2023-11-21T03:23:38;95852.75;;;7.13;84.28
82858;BME280;72620;47.774;9.620;2023-11-21T03:26:05;95854.63;;;7.11;84.35
82858;BME280;72620;47.774;9.620;2023-11-21T03:28:35;95869.44;;;7.08;83.97
82858;BME280;72620;47.774;9.620;2023-11-21T03:31:02;95868.78;;;7.06;84.60
82858;BME280;72620;47.774;9.620;2023-11-21T03:33:29;95868.78;;;7.06;84.57
82858;BME280;72620;47.774;9.620;2023-11-21T03:35:56;95877.50;;;7.03;87.19
82858;BME280;72620;47.774;9.620;2023-11-21T03:38:23;95878.28;;;7.04;86.58
82858;BME280;72620;47.774;9.620;2023-11-21T03:40:51;95876.97;;;7.00;85.97
82858;BME280;72620;47.774;9.620;2023-11-21T03:43:18;95881.13;;;7.01;86.98
82858;BME280;72620;47.774;9.620;2023-11-21T03:45:45;95886.66;;;6.96;85.85
82858;BME280;72620;47.774;9.620;2023-11-21T03:48:13;95884.38;;;6.93;87.57
82858;BME280;72620;47.774;9.620;2023-11-21T03:50:40;95890.44;;;6.92;86.73
82858;BME280;72620;47.774;9.620;2023-11-21T03:53:07;95879.56;;;6.90;85.70
82858;BME280;72620;47.774;9.620;2023-11-21T03:55:34;95883.97;;;6.88;86.25
82858;BME280;72620;47.774;9.620;2023-11-21T03:58:01;95885.75;;;6.88;85.91
82858;BME280;72620;47.774;9.620;2023-11-21T04:00:29;95879.16;;;6.85;87.16
82858;BME280;72620;47.774;9.620;2023-11-21T04:02:56;95879.56;;;6.81;87.29
82858;BME280;72620;47.774;9.620;2023-11-21T04:05:24;95875.53;;;6.78;86.09
82858;BME280;72620;47.774;9.620;2023-11-21T04:07:51;95875.81;;;6.75;86.28
82858;BME280;72620;47.774;9.620;2023-11-21T04:10:19;95870.59;;;6.77;86.15
82858;BME280;72620;47.774;9.620;2023-11-21T04:12:46;95874.06;;;6.76;87.67
82858;BME280;72620;47.774;9.620;2023-11-21T04:15:13;95875.94;;;6.74;86.54
82858;BME280;72620;47.774;9.620;2023-11-21T04:17:42;95875.94;;;6.74;86.47
82858;BME280;72620;47.774;9.620;2023-11-21T04:20:09;95875.69;;;6.77;86.98
82858;BME280;72620;47.774;9.620;2023-11-21T04:22:41;95874.72;;;6.78;88.02
82858;BME280;72620;47.774;9.620;2023-11-21T04:25:14;95874.72;;;6.78;88.18
82858;BME280;72620;47.774;9.620;2023-11-21T04:27:44;95862.78;;;6.78;87.40
82858;BME280;72620;47.774;9.620;2023-11-21T04:30:13;95872.19;;;6.78;88.48
82858;BME280;72620;47.774;9.620;2023-11-21T04:32:41;95860.38;;;6.77;87.53
82858;BME280;72620;47.774;9.620;2023-11-21T04:35:09;95862.78;;;6.78;87.94
82858;BME280;72620;47.774;9.620;2023-11-21T04:37:36;95858.34;;;6.80;88.12
82858;BME280;72620;47.774;9.620;2023-11-21T04:40:04;95870.28;;;6.80;87.56
82858;BME280;72620;47.774;9.620;2023-11-21T04:42:35;95856.06;;;6.77;88.44
82858;BME280;72620;47.774;9.620;2023-11-21T04:45:05;95863.06;;;6.75;87.34
82858;BME280;72620;47.774;9.620;2023-11-21T04:47:36;95865.91;;;6.72;88.43
82858;BME280;72620;47.774;9.620;2023-11-21T04:50:04;95874.88;;;6.76;88.70
82858;BME280;72620;47.774;9.620;2023-11-21T04:52:32;95870.72;;;6.75;88.31
82858;BME280;72620;47.774;9.620;2023-11-21T04:55:00;95868.16;;;6.75;88.12
82858;BME280;72620;47.774;9.620;2023-11-21T04:57:29;95874.34;;;6.73;88.19
82858;BME280;72620;47.774;9.620;2023-11-21T04:59:56;95866.97;;;6.70;88.32
82858;BME280;72620;47.774;9.620;2023-11-21T05:02:23;95861.88;;;6.70;88.50
82858;BME280;72620;47.774;9.620;2023-11-21T05:05:04;95859.59;;;6.67;88.18
82858;BME280;72620;47.774;9.620;2023-11-21T05:07:33;95870.84;;;6.64;88.21
82858;BME280;72620;47.774;9.620;2023-11-21T05:10:06;95875.56;;;6.69;87.91
82858;BME280;72620;47.774;9.620;2023-11-21T05:12:41;95872.06;;;6.70;88.80
82858;BME280;72620;47.774;9.620;2023-11-21T05:15:09;95874.63;;;6.70;88.54
82858;BME280;72620;47.774;9.620;2023-11-21T05:17:41;95873.81;;;6.69;88.53
82858;BME280;72620;47.774;9.620;2023-11-21T05:20:11;95884.00;;;6.69;87.96
82858;BME280;72620;47.774;9.620;2023-11-21T05:22:40;95881.31;;;6.71;88.18
82858;BME280;72620;47.774;9.620;2023-11-21T05:25:09;95887.91;;;6.73;89.08
82858;BME280;72620;47.774;9.620;2023-11-21T05:27:38;95881.56;;;6.77;89.07
82858;BME280;72620;47.774;9.620;2023-11-21T05:30:05;95882.13;;;6.81;89.63
82858;BME280;72620;47.774;9.620;2023-11-21T05:32:33;95887.22;;;6.81;89.14
82858;BME280;72620;47.774;9.620;2023-11-21T05:35:01;95888.16;;;6.80;89.18
82858;BME280;72620;47.774;9.620;2023-11-21T05:37:28;95884.81;;;6.79;89.86
82858;BME280;72620;47.774;9.620;2023-11-21T05:39:55;95878.63;;;6.82;89.91
82858;BME280;72620;47.774;9.620;2023-11-21T05:42:32;95874.63;;;6.79;88.99
82858;BME280;72620;47.774;9.620;2023-11-21T05:45:00;95875.03;;;6.75;89.19
82858;BME280;72620;47.774;9.620;2023-11-21T05:47:41;95885.75;;;6.69;89.44
82858;BME280;72620;47.774;9.620;2023-11-21T05:50:10;95884.41;;;6.65;89.80
82858;BME280;72620;47.774;9.620;2023-11-21T05:52:44;95889.13;;;6.59;90.05
82858;BME280;72620;47.774;9.620;2023-11-21T05:55:12;95895.16;;;6.58;90.65
82858;BME280;72620;47.774;9.620;2023-11-21T05:57:42;95891.66;;;6.59;89.99
82858;BME280;72620;47.774;9.620;2023-11-21T06:00:12;95897.56;;;6.60;89.79
82858;BME280;72620;47.774;9.620;2023-11-21T06:02:49;95900.28;;;6.58;90.86
82858;BME280;72620;47.774;9.620;2023-11-21T06:05:23;95899.06;;;6.63;89.96
82858;BME280;72620;47.774;9.620;2023-11-21T06:07:54;95894.34;;;6.68;90.45
82858;BME280;72620;47.774;9.620;2023-11-21T06:10:26;95899.84;;;6.73;89.88
82858;BME280;72620;47.774;9.620;2023-11-21T06:12:55;95899.31;;;6.79;89.70
82858;BME280;72620;47.774;9.620;2023-11-21T06:15:24;95904.41;;;6.79;89.60
82858;BME280;72620;47.774;9.620;2023-11-21T06:17:51;95901.56;;;6.82;89.90
82858;BME280;72620;47.774;9.620;2023-11-21T06:20:21;95905.88;;;6.81;90.70
82858;BME280;72620;47.774;9.620;2023-11-21T06:22:50;95901.56;;;6.82;90.22
82858;BME280;72620;47.774;9.620;2023-11-21T06:25:18;95913.53;;;6.81;90.25
82858;BME280;72620;47.774;9.620;2023-11-21T06:27:47;95915.28;;;6.81;90.89
82858;BME280;72620;47.774;9.620;2023-11-21T06:30:15;95915.28;;;6.81;90.47
82858;BME280;72620;47.774;9.620;2023-11-21T06:32:43;95918.50;;;6.83;90.41
82858;BME280;72620;47.774;9.620;2023-11-21T06:35:13;95923.44;;;6.84;90.79
82858;BME280;72620;47.774;9.620;2023-11-21T06:37:44;95923.03;;;6.89;90.32
82858;BME280;72620;47.774;9.620;2023-11-21T06:40:17;95919.97;;;6.95;90.28
82858;BME280;72620;47.774;9.620;2023-11-21T06:42:46;95929.75;;;6.99;89.15
82858;BME280;72620;47.774;9.620;2023-11-21T06:45:15;95932.97;;;7.01;88.87
82858;BME280;72620;47.774;9.620;2023-11-21T06:47:43;95927.06;;;7.01;88.45
82858;BME280;72620;47.774;9.620;2023-11-21T06:50:11;95922.88;;;7.00;89.67
82858;BME280;72620;47.774;9.620;2023-11-21T06:52:38;95935.38;;;7.03;88.93
82858;BME280;72620;47.774;9.620;2023-11-21T06:55:06;95934.31;;;7.05;88.22
82858;BME280;72620;47.774;9.620;2023-11-21T06:57:35;95936.97;;;7.04;89.13
82858;BME280;72620;47.774;9.620;2023-11-21T07:00:04;95936.72;;;7.07;88.59
82858;BME280;72620;47.774;9.620;2023-11-21T07:02:31;95947.59;;;7.09;87.30
82858;BME280;72620;47.774;9.620;2023-11-21T07:04:59;95932.41;;;7.07;87.71
82858;BME280;72620;47.774;9.620;2023-11-21T07:07:27;95943.16;;;7.11;87.65
82858;BME280;72620;47.774;9.620;2023-11-21T07:09:54;95937.94;;;7.12;88.21
82858;BME280;72620;47.774;9.620;2023-11-21T07:12:22;95943.53;;;7.16;88.92
82858;BME280;72620;47.774;9.620;2023-11-21T07:14:50;95950.66;;;7.22;88.18
82858;BME280;72620;47.774;9.620;2023-11-21T07:17:17;95949.44;;;7.26;88.58
82858;BME280;72620;47.774;9.620;2023-11-21T07:19:44;95947.81;;;7.25;88.46
82858;BME280;72620;47.774;9.620;2023-11-21T07:22:12;95954.25;;;7.29;88.52
82858;BME280;72620;47.774;9.620;2023-11-21T07:24:39;95954.00;;;7.32;88.29
82858;BME280;72620;47.774;9.620;2023-11-21T07:27:07;95957.63;;;7.29;87.46
82858;BME280;72620;47.774;9.620;2023-11-21T07:29:35;95961.09;;;7.28;87.39
82858;BME280;72620;47.774;9.620;2023-11-21T07:32:02;95961.25;;;7.27;88.58
82858;BME280;72620;47.774;9.620;2023-11-21T07:34:29;95965.00;;;7.32;87.52
82858;BME280;72620;47.774;9.620;2023-11-21T07:36:57;95967.28;;;7.36;88.20
82858;BME280;72620;47.774;9.620;2023-11-21T07:39:24;95955.16;;;7.38;88.43
82858;BME280;72620;47.774;9.620;2023-11-21T07:41:51;95961.75;;;7.40;87.76
82858;BME280;72620;47.774;9.620;2023-11-21T07:44:18;95965.25;;;7.39;88.04
82858;BME280;72620;47.774;9.620;2023-11-21T07:46:48;95967.16;;;7.37;87.45
82858;BME280;72620;47.774;9.620;2023-11-21T07:49:16;95955.31;;;7.36;88.24
82858;BME280;72620;47.774;9.620;2023-11-21T07:51:47;95958.53;;;7.38;87.96
82858;BME280;72620;47.774;9.620;2023-11-21T07:54:15;95965.78;;;7.43;87.93
82858;BME280;72620;47.774;9.620;2023-11-21T07:56:43;95955.81;;;7.49;87.94
82858;BME280;72620;47.774;9.620;2023-11-21T07:59:10;95968.72;;;7.57;87.33
82858;BME280;72620;47.774;9.620;2023-11-21T08:01:37;95960.91;;;7.59;87.21
82858;BME280;72620;47.774;9.620;2023-11-21T08:04:05;95960.09;;;7.58;88.09
82858;BME280;72620;47.774;9.620;2023-11-21T08:06:33;95963.03;;;7.63;86.82
82858;BME280;72620;47.774;9.620;2023-11-21T08:09:00;95962.75;;;7.66;86.77
82858;BME280;72620;47.774;9.620;2023-11-21T08:11:28;95967.44;;;7.71;87.52
82858;BME280;72620;47.774;9.620;2023-11-21T08:13:59;95961.63;;;7.78;86.60
82858;BME280;72620;47.774;9.620;2023-11-21T08:16:26;95968.06;;;7.82;86.54
82858;BME280;72620;47.774;9.620;2023-11-21T08:18:54;95966.31;;;7.83;87.13
82858;BME280;72620;47.774;9.620;2023-11-21T08:21:22;95964.16;;;7.78;86.68
82858;BME280;72620;47.774;9.620;2023-11-21T08:23:50;95975.88;;;7.81;87.08
82858;BME280;72620;47.774;9.620;2023-11-21T08:26:22;95967.94;;;7.84;85.48
82858;BME280;72620;47.774;9.620;2023-11-21T08:28:49;95972.75;;;7.87;86.29
82858;BME280;72620;47.774;9.620;2023-11-21T08:31:24;95980.13;;;7.90;86.62
82858;BME280;72620;47.774;9.620;2023-11-21T08:33:52;95973.44;;;7.89;85.90
82858;BME280;72620;47.774;9.620;2023-11-21T08:36:22;95978.97;;;7.84;86.03
82858;BME280;72620;47.774;9.620;2023-11-21T08:38:51;95976.81;;;7.80;85.97
82858;BME280;72620;47.774;9.620;2023-11-21T08:41:19;95976.69;;;7.81;86.66
82858;BME280;72620;47.774;9.620;2023-11-21T08:43:49;95978.84;;;7.76;86.62
82858;BME280;72620;47.774;9.620;2023-11-21T08:46:18;95982.06;;;7.78;86.84
82858;BME280;72620;47.774;9.620;2023-11-21T08:48:46;95989.31;;;7.83;86.13
82858;BME280;72620;47.774;9.620;2023-11-21T08:51:13;95987.72;;;7.82;86.40
82858;BME280;72620;47.774;9.620;2023-11-21T08:53:42;95984.50;;;7.80;87.04
82858;BME280;72620;47.774;9.620;2023-11-21T08:56:13;95991.34;;;7.79;85.85
82858;BME280;72620;47.774;9.620;2023-11-21T08:58:46;95985.94;;;7.82;85.70
82858;BME280;72620;47.774;9.620;2023-11-21T09:01:13;95988.50;;;7.82;85.77
82858;BME280;72620;47.774;9.620;2023-11-21T09:03:40;95990.34;;;7.90;86.77
82858;BME280;72620;47.774;9.620;2023-11-21T09:06:08;95981.56;;;8.02;85.55
82858;BME280;72620;47.774;9.620;2023-11-21T09:08:37;95992.53;;;8.12;84.65
82858;BME280;72620;47.774;9.620;2023-11-21T09:11:04;96000.00;;;8.23;85.60
82858;BME280;72620;47.774;9.620;2023-11-21T09:13:32;95992.81;;;8.36;84.24
82858;BME280;72620;47.774;9.620;2023-11-21T09:16:00;96002.34;;;8.44;84.89
82858;BME280;72620;47.774;9.620;2023-11-21T09:18:27;95996.59;;;8.59;84.01
82858;BME280;72620;47.774;9.620;2023-11-21T09:20:54;96004.59;;;8.74;83.50
82858;BME280;72620;47.774;9.620;2023-11-21T09:23:21;96011.50;;;8.82;82.73
82858;BME280;72620;47.774;9.620;2023-11-21T09:25:48;96002.91;;;8.83;82.57
82858;BME280;72620;47.774;9.620;2023-11-21T09:28:17;96004.06;;;8.88;81.23
82858;BME280;72620;47.774;9.620;2023-11-21T09:30:44;96005.03;;;8.87;82.03
82858;BME280;72620;47.774;9.620;2023-11-21T09:33:11;96005.03;;;8.87;81.52
82858;BME280;72620;47.774;9.620;2023-11-21T09:35:39;96003.50;;;8.94;81.82
82858;BME280;72620;47.774;9.620;2023-11-21T09:38:06;96008.00;;;9.00;80.69
82858;BME280;72620;47.774;9.620;2023-11-21T09:40:38;96010.28;;;9.03;82.29
82858;BME280;72620;47.774;9.620;2023-11-21T09:43:08;96010.13;;;9.05;82.19
82858;BME280;72620;47.774;9.620;2023-11-21T09:45:47;96010.63;;;9.08;79.94
82858;BME280;72620;47.774;9.620;2023-11-21T09:48:20;96016.78;;;8.98;82.13
82858;BME280;72620;47.774;9.620;2023-11-21T09:50:50;96010.72;;;8.99;82.94
82858;BME280;72620;47.774;9.620;2023-11-21T09:53:21;96017.16;;;9.03;82.38
82858;BME280;72620;47.774;9.620;2023-11-21T09:55:52;96019.56;;;9.04;81.40
82858;BME280;72620;47.774;9.620;2023-11-21T09:58:20;96013.13;;;9.00;81.36
82858;BME280;72620;47.774;9.620;2023-11-21T10:00:57;96018.25;;;9.00;82.55
82858;BME280;72620;47.774;9.620;2023-11-21T10:03:26;96012.16;;;9.01;82.96
82858;BME280;72620;47.774;9.620;2023-11-21T10:05:56;96017.00;;;9.04;83.28
82858;BME280;72620;47.774;9.620;2023-11-21T10:08:27;96016.56;;;9.09;81.24
82858;BME280;72620;47.774;9.620;2023-11-21T10:11:17;96014.44;;;9.04;80.73
82858;BME280;72620;47.774;9.620;2023-11-21T10:13:46;96009.53;;;9.11;82.46
82858;BME280;72620;47.774;9.620;2023-11-21T10:16:19;96005.47;;;9.43;81.24
82858;BME280;72620;47.774;9.620;2023-11-21T10:18:52;96007.06;;;9.70;77.68
82858;BME280;72620;47.774;9.620;2023-11-21T10:21:38;96001.91;;;9.96;79.95
82858;BME280;72620;47.774;9.620;2023-11-21T10:24:06;96000.84;;;10.06;76.65
82858;BME280;72620;47.774;9.620;2023-11-21T10:26:34;96000.28;;;10.20;77.45
82858;BME280;72620;47.774;9.620;2023-11-21T10:29:16;95992.66;;;10.37;76.37
82858;BME280;72620;47.774;9.620;2023-11-21T10:31:43;95993.78;;;10.42;75.11
82858;BME280;72620;47.774;9.620;2023-11-21T10:34:15;95993.94;;;10.41;76.25
82858;BME280;72620;47.774;9.620;2023-11-21T10:36:45;95987.69;;;10.35;75.17
82858;BME280;72620;47.774;9.620;2023-11-21T10:39:22;95987.63;;;10.27;75.39
82858;BME280;72620;47.774;9.620;2023-11-21T10:41:50;95998.06;;;10.26;76.20
82858;BME280;72620;47.774;9.620;2023-11-21T10:44:18;95988.63;;;10.26;76.34
82858;BME280;72620;47.774;9.620;2023-11-21T10:46:49;95998.38;;;10.23;75.42
82858;BME280;72620;47.774;9.620;2023-11-21T10:49:18;95998.75;;;10.02;76.68
82858;BME280;72620;47.774;9.620;2023-11-21T10:51:47;95998.03;;;9.84;76.92
82858;BME280;72620;47.774;9.620;2023-11-21T10:54:24;95998.03;;;9.84;78.30
82858;BME280;72620;47.774;9.620;2023-11-21T10:57:00;95994.47;;;9.77;77.26
82858;BME280;72620;47.774;9.620;2023-11-21T10:59:30;95999.59;;;9.77;78.23
82858;BME280;72620;47.774;9.620;2023-11-21T11:02:01;95995.84;;;9.71;78.02
82858;BME280;72620;47.774;9.620;2023-11-21T11:04:37;96001.59;;;9.65;77.89
82858;BME280;72620;47.774;9.620;2023-11-21T11:07:08;95995.38;;;9.68;76.68
82858;BME280;72620;47.774;9.620;2023-11-21T11:09:40;95990.69;;;9.63;77.12
82858;BME280;72620;47.774;9.620;2023-11-21T11:12:08;95990.09;;;9.69;76.76
82858;BME280;72620;47.774;9.620;2023-11-21T11:14:36;95991.25;;;9.75;76.30
82858;BME280;72620;47.774;9.620;2023-11-21T11:17:09;96002.19;;;9.85;75.46
82858;BME280;72620;47.774;9.620;2023-11-21T11:19:40;96001.56;;;9.91;76.47
82858;BME280;72620;47.774;9.620;2023-11-21T11:22:29;96000.78;;;9.90;76.17
82858;BME280;72620;47.774;9.620;2023-11-21T11:28:14;95997.03;;;9.77;74.68
82858;BME280;72620;47.774;9.620;2023-11-21T11:36:57;95988.41;;;9.86;75.34
82858;BME280;72620;47.774;9.620;2023-11-21T11:39:31;95984.59;;;9.90;75.29
82858;BME280;72620;47.774;9.620;2023-11-21T11:42:05;95986.41;;;9.97;76.98
82858;BME280;72620;47.774;9.620;2023-11-21T11:47:15;95975.56;;;10.11;74.57
82858;BME280;72620;47.774;9.620;2023-11-21T11:50:15;95978.00;;;10.21;74.56
82858;BME280;72620;47.774;9.620;2023-11-21T11:52:47;95976.09;;;10.23;74.35
82858;BME280;72620;47.774;9.620;2023-11-21T11:55:19;95975.78;;;10.26;72.51
82858;BME280;72620;47.774;9.620;2023-11-21T11:57:49;95976.38;;;10.20;74.74
82858;BME280;72620;47.774;9.620;2023-11-21T12:00:38;95973.75;;;10.04;74.19
82858;BME280;72620;47.774;9.620;2023-11-21T12:03:09;95974.41;;;10.06;75.57
82858;BME280;72620;47.774;9.620;2023-11-21T12:05:37;95973.81;;;10.12;76.25
82858;BME280;72620;47.774;9.620;2023-11-21T12:08:08;95962.59;;;10.13;73.13
82858;BME280;72620;47.774;9.620;2023-11-21T12:10:38;95968.38;;;10.15;73.99
82858;BME280;72620;47.774;9.620;2023-11-21T12:13:09;95963.25;;;10.15;73.53
82858;BME280;72620;47.774;9.620;2023-11-21T12:15:39;95960.47;;;10.08;73.33
82858;BME280;72620;47.774;9.620;2023-11-21T12:18:08;95964.16;;;10.06;74.45
82858;BME280;72620;47.774;9.620;2023-11-21T12:20:36;95972.50;;;10.08;74.05
82858;BME280;72620;47.774;9.620;2023-11-21T12:23:06;95986.34;;;10.15;75.98
82858;BME280;72620;47.774;9.620;2023-11-21T12:25:36;95986.34;;;10.15;75.98
82858;BME280;72620;47.774;9.620;2023-11-21T12:28:04;95980.47;;;10.05;74.97
82858;BME280;72620;47.774;9.620;2023-11-21T12:30:36;95980.47;;;10.05;74.97
82858;BME280;72620;47.774;9.620;2023-11-21T12:33:05;95973.69;;;9.88;75.27
82858;BME280;72620;47.774;9.620;2023-11-21T12:35:37;95971.69;;;9.74;76.84
82858;BME280;72620;47.774;9.620;2023-11-21T12:38:05;95975.72;;;9.50;75.79
82858;BME280;72620;47.774;9.620;2023-11-21T12:40:33;95991.19;;;9.41;76.86
82858;BME280;72620;47.774;9.620;2023-11-21T12:43:00;95998.84;;;9.59;76.61
82858;BME280;72620;47.774;9.620;2023-11-21T12:45:31;95986.13;;;9.75;76.79
82858;BME280;72620;47.774;9.620;2023-11-21T12:48:04;95986.13;;;9.75;76.79
82858;BME280;72620;47.774;9.620;2023-11-21T12:50:38;95988.13;;;9.63;75.15
82858;BME280;72620;47.774;9.620;2023-11-21T12:53:11;95981.00;;;9.49;75.92
82858;BME280;72620;47.774;9.620;2023-11-21T12:55:39;95998.81;;;9.33;77.86
82858;BME280;72620;47.774;9.620;2023-11-21T12:58:10;95999.38;;;9.44;77.53
82858;BME280;72620;47.774;9.620;2023-11-21T13:00:47;95996.91;;;9.61;76.06
82858;BME280;72620;47.774;9.620;2023-11-21T13:03:17;95996.91;;;9.61;76.06
82858;BME280;72620;47.774;9.620;2023-11-21T13:05:48;95979.25;;;9.49;76.31
82858;BME280;72620;47.774;9.620;2023-11-21T13:08:20;95987.19;;;9.38;78.46
82858;BME280;72620;47.774;9.620;2023-11-21T13:10:54;95986.44;;;9.28;78.69
82858;BME280;72620;47.774;9.620;2023-11-21T13:13:24;95988.31;;;9.18;79.24
82858;BME280;72620;47.774;9.620;2023-11-21T13:15:56;95991.59;;;9.11;79.24
82858;BME280;72620;47.774;9.620;2023-11-21T13:18:28;95987.25;;;9.03;79.96
82858;BME280;72620;47.774;9.620;2023-11-21T13:21:00;96011.81;;;8.96;82.61
82858;BME280;72620;47.774;9.620;2023-11-21T13:23:34;96012.03;;;9.03;81.91
82858;BME280;72620;47.774;9.620;2023-11-21T13:26:05;96007.34;;;9.16;81.05
82858;BME280;72620;47.774;9.620;2023-11-21T13:28:34;96007.34;;;9.16;81.05
82858;BME280;72620;47.774;9.620;2023-11-21T13:31:05;95997.75;;;9.18;80.82
82858;BME280;72620;47.774;9.620;2023-11-21T13:33:38;96017.38;;;9.35;79.87